createdAt,value
2018-12-24T00:04:59.529Z,6.55
2018-12-24T00:10:19.129Z,6.52
2018-12-24T00:15:37.980Z,6.75
2018-12-24T00:20:57.201Z,6.76
2018-12-24T00:26:16.711Z,6.86
2018-12-24T00:31:36.139Z,6.98
2018-12-24T00:36:54.471Z,7.02
2018-12-24T00:42:15.915Z,7.14
2018-12-24T00:47:31.805Z,7.29
2018-12-24T00:52:50.891Z,7.42
2018-12-24T00:58:10.236Z,7.74
2018-12-24T01:03:32.499Z,7.84
2018-12-24T01:08:51.212Z,8.14
2018-12-24T01:14:10.650Z,8.34
2018-12-24T01:19:31.489Z,8.46
2018-12-24T01:24:50.278Z,9.08
2018-12-24T01:30:09.325Z,9.79
2018-12-24T01:35:27.875Z,9.79
2018-12-24T01:40:46.550Z,9.91
2018-12-24T01:46:05.422Z,10.07
2018-12-24T01:51:24.461Z,10.19
2018-12-24T01:56:43.037Z,10.49
2018-12-24T02:02:02.475Z,10.61
2018-12-24T02:07:21.379Z,10.75
2018-12-24T02:12:42.308Z,10.87
2018-12-24T02:17:58.582Z,11.06
2018-12-24T02:23:17.355Z,11.28
2018-12-24T02:28:37.396Z,11.35
2018-12-24T02:33:55.260Z,11.40
2018-12-24T02:39:13.890Z,11.57
2018-12-24T02:44:32.776Z,11.63
2018-12-24T02:49:51.626Z,11.64
2018-12-24T02:55:10.021Z,11.85
2018-12-24T03:00:28.205Z,11.74
2018-12-24T03:05:47.298Z,11.71
2018-12-24T03:11:05.707Z,11.57
2018-12-24T03:16:24.352Z,11.55
2018-12-24T03:21:43.345Z,11.58
2018-12-24T03:27:02.468Z,11.52
2018-12-24T03:32:20.823Z,11.33
2018-12-24T03:37:39.742Z,11.03
2018-12-24T04:43:51.957Z,6.25
2018-12-24T04:49:10.431Z,6.09
2018-12-24T04:54:29.548Z,6.02
2018-12-24T04:59:47.741Z,5.80
2018-12-24T05:05:06.755Z,5.66
2018-12-24T05:10:25.498Z,5.30
2018-12-24T05:15:44.740Z,5.06
2018-12-24T05:21:03.786Z,5.25
